sensor_id;sensor_type;location;lat;lon;timestamp;temperature;humidity
3850;DHT22;1940;51.052;13.678;2022-07-17T00:00:39;14.30;66.00
3850;DHT22;1940;51.052;13.678;2022-07-17T00:03:11;14.30;66.10
3850;DHT22;1940;51.052;13.678;2022-07-17T00:05:37;14.20;66.20
3850;DHT22;1940;51.052;13.678;2022-07-17T00:08:04;14.20;66.50
3850;DHT22;1940;51.052;13.678;2022-07-17T00:10:32;14.10;66.80
3850;DHT22;1940;51.052;13.678;2022-07-17T00:12:57;14.10;67.00
3850;DHT22;1940;51.052;13.678;2022-07-17T00:15:23;14.00;67.20
3850;DHT22;1940;51.052;13.678;2022-07-17T00:17:49;14.00;67.20
3850;DHT22;1940;51.052;13.678;2022-07-17T00:20:14;14.00;67.20
3850;DHT22;1940;51.052;13.678;2022-07-17T00:22:40;14.10;67.10
3850;DHT22;1940;51.052;13.678;2022-07-17T00:25:09;14.00;67.50
3850;DHT22;1940;51.052;13.678;2022-07-17T00:27:36;14.00;67.50
3850;DHT22;1940;51.052;13.678;2022-07-17T00:30:02;14.00;67.60
3850;DHT22;1940;51.052;13.678;2022-07-17T00:32:28;13.90;67.80
3850;DHT22;1940;51.052;13.678;2022-07-17T00:34:53;13.90;68.00
3850;DHT22;1940;51.052;13.678;2022-07-17T00:37:19;14.00;67.80
3850;DHT22;1940;51.052;13.678;2022-07-17T00:39:45;13.90;67.90
3850;DHT22;1940;51.052;13.678;2022-07-17T00:42:12;13.90;67.80
3850;DHT22;1940;51.052;13.678;2022-07-17T00:44:39;13.90;67.90
3850;DHT22;1940;51.052;13.678;2022-07-17T00:47:14;13.80;68.10
3850;DHT22;1940;51.052;13.678;2022-07-17T00:49:40;13.80;68.20
3850;DHT22;1940;51.052;13.678;2022-07-17T00:52:06;13.70;68.50
3850;DHT22;1940;51.052;13.678;2022-07-17T00:54:35;13.60;68.60
3850;DHT22;1940;51.052;13.678;2022-07-17T00:57:06;13.50;68.90
3850;DHT22;1940;51.052;13.678;2022-07-17T00:59:32;13.50;69.10
3850;DHT22;1940;51.052;13.678;2022-07-17T01:02:05;13.50;69.20
3850;DHT22;1940;51.052;13.678;2022-07-17T01:04:32;13.50;69.10
3850;DHT22;1940;51.052;13.678;2022-07-17T01:06:59;13.50;69.20
3850;DHT22;1940;51.052;13.678;2022-07-17T01:09:25;13.60;69.20
3850;DHT22;1940;51.052;13.678;2022-07-17T01:11:51;13.50;69.30
3850;DHT22;1940;51.052;13.678;2022-07-17T01:14:17;13.40;69.40
3850;DHT22;1940;51.052;13.678;2022-07-17T01:16:43;13.30;69.90
3850;DHT22;1940;51.052;13.678;2022-07-17T01:19:10;13.20;70.20
3850;DHT22;1940;51.052;13.678;2022-07-17T01:21:44;13.10;70.40
3850;DHT22;1940;51.052;13.678;2022-07-17T01:24:11;13.10;70.50
3850;DHT22;1940;51.052;13.678;2022-07-17T01:26:39;13.20;70.30
3850;DHT22;1940;51.052;13.678;2022-07-17T01:29:05;13.20;70.50
3850;DHT22;1940;51.052;13.678;2022-07-17T01:31:30;13.10;70.40
3850;DHT22;1940;51.052;13.678;2022-07-17T01:33:56;13.20;70.20
3850;DHT22;1940;51.052;13.678;2022-07-17T01:36:24;13.20;70.30
3850;DHT22;1940;51.052;13.678;2022-07-17T01:38:50;13.20;70.30
3850;DHT22;1940;51.052;13.678;2022-07-17T01:41:16;13.20;70.30
3850;DHT22;1940;51.052;13.678;2022-07-17T01:43:42;13.10;70.50
3850;DHT22;1940;51.052;13.678;2022-07-17T01:46:07;13.00;71.00
3850;DHT22;1940;51.052;13.678;2022-07-17T01:48:33;12.80;71.40
3850;DHT22;1940;51.052;13.678;2022-07-17T01:50:59;12.80;71.60
3850;DHT22;1940;51.052;13.678;2022-07-17T01:53:25;12.80;71.50
3850;DHT22;1940;51.052;13.678;2022-07-17T01:55:51;12.70;71.80
3850;DHT22;1940;51.052;13.678;2022-07-17T01:58:16;12.70;72.00
3850;DHT22;1940;51.052;13.678;2022-07-17T02:00:42;12.70;72.10
3850;DHT22;1940;51.052;13.678;2022-07-17T02:03:08;12.70;72.20
3850;DHT22;1940;51.052;13.678;2022-07-17T02:05:34;12.60;72.60
3850;DHT22;1940;51.052;13.678;2022-07-17T02:07:59;12.50;72.80
3850;DHT22;1940;51.052;13.678;2022-07-17T02:10:25;12.50;72.80
3850;DHT22;1940;51.052;13.678;2022-07-17T02:12:51;12.50;72.80
3850;DHT22;1940;51.052;13.678;2022-07-17T02:15:17;12.60;72.70
3850;DHT22;1940;51.052;13.678;2022-07-17T02:17:42;12.60;72.60
3850;DHT22;1940;51.052;13.678;2022-07-17T02:20:09;12.70;72.20
3850;DHT22;1940;51.052;13.678;2022-07-17T02:22:35;12.70;72.10
3850;DHT22;1940;51.052;13.678;2022-07-17T02:25:02;12.70;72.00
3850;DHT22;1940;51.052;13.678;2022-07-17T02:27:27;12.70;71.90
3850;DHT22;1940;51.052;13.678;2022-07-17T02:29:53;12.70;71.90
3850;DHT22;1940;51.052;13.678;2022-07-17T02:32:19;12.70;71.90
3850;DHT22;1940;51.052;13.678;2022-07-17T02:34:44;12.70;72.10
3850;DHT22;1940;51.052;13.678;2022-07-17T02:37:10;12.60;72.30
3850;DHT22;1940;51.052;13.678;2022-07-17T02:39:36;12.60;72.60
3850;DHT22;1940;51.052;13.678;2022-07-17T02:42:02;12.70;72.30
3850;DHT22;1940;51.052;13.678;2022-07-17T02:44:28;12.70;72.40
3850;DHT22;1940;51.052;13.678;2022-07-17T02:46:53;12.70;72.20
3850;DHT22;1940;51.052;13.678;2022-07-17T02:49:19;12.70;72.20
3850;DHT22;1940;51.052;13.678;2022-07-17T02:51:44;12.70;72.40
3850;DHT22;1940;51.052;13.678;2022-07-17T02:54:10;12.70;72.30
3850;DHT22;1940;51.052;13.678;2022-07-17T02:56:36;12.70;72.30
3850;DHT22;1940;51.052;13.678;2022-07-17T02:59:01;12.70;72.30
3850;DHT22;1940;51.052;13.678;2022-07-17T03:01:27;12.80;72.40
3850;DHT22;1940;51.052;13.678;2022-07-17T03:03:52;12.80;72.30
3850;DHT22;1940;51.052;13.678;2022-07-17T03:06:18;12.80;72.30
3850;DHT22;1940;51.052;13.678;2022-07-17T03:08:43;12.70;72.70
3850;DHT22;1940;51.052;13.678;2022-07-17T03:11:09;12.60;73.10
3850;DHT22;1940;51.052;13.678;2022-07-17T03:13:35;12.60;73.20
3850;DHT22;1940;51.052;13.678;2022-07-17T03:16:00;12.70;73.00
3850;DHT22;1940;51.052;13.678;2022-07-17T03:18:26;12.70;72.90
3850;DHT22;1940;51.052;13.678;2022-07-17T03:20:51;12.70;73.10
3850;DHT22;1940;51.052;13.678;2022-07-17T03:23:17;12.70;72.90
3850;DHT22;1940;51.052;13.678;2022-07-17T03:25:43;12.90;72.80
3850;DHT22;1940;51.052;13.678;2022-07-17T03:28:08;13.10;72.20
3850;DHT22;1940;51.052;13.678;2022-07-17T03:30:34;13.30;71.60
3850;DHT22;1940;51.052;13.678;2022-07-17T03:33:00;13.50;71.30
3850;DHT22;1940;51.052;13.678;2022-07-17T03:35:25;13.70;70.50
3850;DHT22;1940;51.052;13.678;2022-07-17T03:37:51;14.00;70.00
3850;DHT22;1940;51.052;13.678;2022-07-17T03:40:17;14.30;69.50
3850;DHT22;1940;51.052;13.678;2022-07-17T03:42:43;14.70;68.10
3850;DHT22;1940;51.052;13.678;2022-07-17T03:45:09;15.10;67.10
3850;DHT22;1940;51.052;13.678;2022-07-17T03:47:35;15.60;66.10
3850;DHT22;1940;51.052;13.678;2022-07-17T03:50:00;16.00;64.70
3850;DHT22;1940;51.052;13.678;2022-07-17T03:52:26;16.50;64.00
3850;DHT22;1940;51.052;13.678;2022-07-17T03:54:52;16.70;63.10
3850;DHT22;1940;51.052;13.678;2022-07-17T03:57:17;16.90;62.70
3850;DHT22;1940;51.052;13.678;2022-07-17T03:59:43;16.90;62.30
3850;DHT22;1940;51.052;13.678;2022-07-17T04:02:09;17.20;62.00
3850;DHT22;1940;51.052;13.678;2022-07-17T04:04:34;17.80;60.80
3850;DHT22;1940;51.052;13.678;2022-07-17T04:07:01;18.40;59.80
3850;DHT22;1940;51.052;13.678;2022-07-17T04:09:26;19.00;58.50
3850;DHT22;1940;51.052;13.678;2022-07-17T04:11:52;19.70;57.20
3850;DHT22;1940;51.052;13.678;2022-07-17T04:14:17;20.10;55.90
3850;DHT22;1940;51.052;13.678;2022-07-17T04:16:43;20.80;55.30
3850;DHT22;1940;51.052;13.678;2022-07-17T04:19:09;21.40;54.10
3850;DHT22;1940;51.052;13.678;2022-07-17T04:21:34;21.60;53.10
3850;DHT22;1940;51.052;13.678;2022-07-17T04:24:00;21.60;53.30
3850;DHT22;1940;51.052;13.678;2022-07-17T04:26:26;21.40;53.20
3850;DHT22;1940;51.052;13.678;2022-07-17T04:28:51;21.10;53.90
3850;DHT22;1940;51.052;13.678;2022-07-17T04:31:17;21.50;53.40
3850;DHT22;1940;51.052;13.678;2022-07-17T04:33:43;22.00;53.10
3850;DHT22;1940;51.052;13.678;2022-07-17T04:36:09;21.70;52.80
3850;DHT22;1940;51.052;13.678;2022-07-17T04:38:34;22.00;52.40
3850;DHT22;1940;51.052;13.678;2022-07-17T04:41:00;21.50;53.40
3850;DHT22;1940;51.052;13.678;2022-07-17T04:43:26;21.60;53.20
3850;DHT22;1940;51.052;13.678;2022-07-17T04:45:52;21.60;53.50
3850;DHT22;1940;51.052;13.678;2022-07-17T04:48:17;22.50;52.20
3850;DHT22;1940;51.052;13.678;2022-07-17T04:50:43;23.10;50.90
3850;DHT22;1940;51.052;13.678;2022-07-17T04:53:09;23.90;50.00
3850;DHT22;1940;51.052;13.678;2022-07-17T04:55:34;24.40;49.20
3850;DHT22;1940;51.052;13.678;2022-07-17T04:58:00;24.50;48.70
3850;DHT22;1940;51.052;13.678;2022-07-17T05:00:25;24.80;48.60
3850;DHT22;1940;51.052;13.678;2022-07-17T05:02:52;25.00;48.10
3850;DHT22;1940;51.052;13.678;2022-07-17T05:05:18;25.40;47.40
3850;DHT22;1940;51.052;13.678;2022-07-17T05:07:43;25.90;46.90
3850;DHT22;1940;51.052;13.678;2022-07-17T05:10:09;25.90;46.70
3850;DHT22;1940;51.052;13.678;2022-07-17T05:12:36;25.30;47.50
3850;DHT22;1940;51.052;13.678;2022-07-17T05:15:02;25.50;47.30
3850;DHT22;1940;51.052;13.678;2022-07-17T05:17:28;25.70;47.30
3850;DHT22;1940;51.052;13.678;2022-07-17T05:19:54;26.40;46.50
3850;DHT22;1940;51.052;13.678;2022-07-17T05:22:19;26.70;45.90
3850;DHT22;1940;51.052;13.678;2022-07-17T05:24:46;26.90;45.70
3850;DHT22;1940;51.052;13.678;2022-07-17T05:27:15;26.70;46.00
3850;DHT22;1940;51.052;13.678;2022-07-17T05:29:41;26.60;46.00
3850;DHT22;1940;51.052;13.678;2022-07-17T05:32:06;26.60;46.00
3850;DHT22;1940;51.052;13.678;2022-07-17T05:34:32;25.80;47.00
3850;DHT22;1940;51.052;13.678;2022-07-17T05:36:57;25.20;48.00
3850;DHT22;1940;51.052;13.678;2022-07-17T05:39:23;24.80;48.50
3850;DHT22;1940;51.052;13.678;2022-07-17T05:41:49;24.50;48.90
3850;DHT22;1940;51.052;13.678;2022-07-17T05:44:15;24.60;49.00
3850;DHT22;1940;51.052;13.678;2022-07-17T05:46:41;24.90;48.40
3850;DHT22;1940;51.052;13.678;2022-07-17T05:49:06;25.20;48.10
3850;DHT22;1940;51.052;13.678;2022-07-17T05:51:32;24.70;49.00
3850;DHT22;1940;51.052;13.678;2022-07-17T05:53:57;24.50;49.70
3850;DHT22;1940;51.052;13.678;2022-07-17T05:56:23;24.60;49.30
3850;DHT22;1940;51.052;13.678;2022-07-17T05:58:49;23.90;50.40
3850;DHT22;1940;51.052;13.678;2022-07-17T06:01:14;23.80;50.60
3850;DHT22;1940;51.052;13.678;2022-07-17T06:03:40;23.60;51.00
3850;DHT22;1940;51.052;13.678;2022-07-17T06:06:06;23.90;50.60
3850;DHT22;1940;51.052;13.678;2022-07-17T06:08:32;24.40;50.00
3850;DHT22;1940;51.052;13.678;2022-07-17T06:10:57;24.00;50.90
3850;DHT22;1940;51.052;13.678;2022-07-17T06:13:23;24.20;50.70
3850;DHT22;1940;51.052;13.678;2022-07-17T06:15:48;23.80;51.30
3850;DHT22;1940;51.052;13.678;2022-07-17T06:18:14;24.40;50.70
3850;DHT22;1940;51.052;13.678;2022-07-17T06:20:39;23.60;51.20
3850;DHT22;1940;51.052;13.678;2022-07-17T06:23:05;23.30;51.20
3850;DHT22;1940;51.052;13.678;2022-07-17T06:25:31;23.30;51.20
3850;DHT22;1940;51.052;13.678;2022-07-17T06:27:56;22.70;51.20
3850;DHT22;1940;51.052;13.678;2022-07-17T06:30:22;22.50;51.70
3850;DHT22;1940;51.052;13.678;2022-07-17T06:32:47;22.80;52.00
3850;DHT22;1940;51.052;13.678;2022-07-17T06:35:13;23.50;50.80
3850;DHT22;1940;51.052;13.678;2022-07-17T06:37:39;24.00;49.90
3850;DHT22;1940;51.052;13.678;2022-07-17T06:40:05;23.40;50.40
3850;DHT22;1940;51.052;13.678;2022-07-17T06:42:31;23.30;51.10
3850;DHT22;1940;51.052;13.678;2022-07-17T06:44:57;23.20;51.10
3850;DHT22;1940;51.052;13.678;2022-07-17T06:47:22;23.90;50.60
3850;DHT22;1940;51.052;13.678;2022-07-17T06:49:48;23.30;51.00
3850;DHT22;1940;51.052;13.678;2022-07-17T06:52:15;23.90;50.30
3850;DHT22;1940;51.052;13.678;2022-07-17T06:54:40;23.40;50.90
3850;DHT22;1940;51.052;13.678;2022-07-17T06:57:06;23.90;50.50
3850;DHT22;1940;51.052;13.678;2022-07-17T06:59:31;24.40;49.80
3850;DHT22;1940;51.052;13.678;2022-07-17T07:01:57;24.10;49.60
3850;DHT22;1940;51.052;13.678;2022-07-17T07:04:23;24.10;50.00
3850;DHT22;1940;51.052;13.678;2022-07-17T07:06:48;24.10;50.00
3850;DHT22;1940;51.052;13.678;2022-07-17T07:09:14;24.10;50.60
3850;DHT22;1940;51.052;13.678;2022-07-17T07:11:40;24.40;49.70
3850;DHT22;1940;51.052;13.678;2022-07-17T07:14:06;24.20;49.70
3850;DHT22;1940;51.052;13.678;2022-07-17T07:16:33;24.30;49.90
3850;DHT22;1940;51.052;13.678;2022-07-17T07:18:59;23.90;50.80
3850;DHT22;1940;51.052;13.678;2022-07-17T07:21:24;23.50;51.40
3850;DHT22;1940;51.052;13.678;2022-07-17T07:23:52;23.50;51.70
3850;DHT22;1940;51.052;13.678;2022-07-17T07:26:17;23.80;51.30
3850;DHT22;1940;51.052;13.678;2022-07-17T07:28:43;23.30;51.80
3850;DHT22;1940;51.052;13.678;2022-07-17T07:31:09;23.00;52.60
3850;DHT22;1940;51.052;13.678;2022-07-17T07:33:36;23.40;51.90
3850;DHT22;1940;51.052;13.678;2022-07-17T07:36:02;23.40;51.50
3850;DHT22;1940;51.052;13.678;2022-07-17T07:38:27;23.70;51.60
3850;DHT22;1940;51.052;13.678;2022-07-17T07:40:54;23.10;52.40
3850;DHT22;1940;51.052;13.678;2022-07-17T07:43:21;23.10;52.40
3850;DHT22;1940;51.052;13.678;2022-07-17T07:45:46;23.30;52.50
3850;DHT22;1940;51.052;13.678;2022-07-17T07:48:12;23.90;51.50
3850;DHT22;1940;51.052;13.678;2022-07-17T07:50:38;24.60;50.50
3850;DHT22;1940;51.052;13.678;2022-07-17T07:53:04;25.00;49.50
3850;DHT22;1940;51.052;13.678;2022-07-17T07:55:30;24.30;50.70
3850;DHT22;1940;51.052;13.678;2022-07-17T07:58:10;24.80;49.50
3850;DHT22;1940;51.052;13.678;2022-07-17T08:00:37;24.90;49.80
3850;DHT22;1940;51.052;13.678;2022-07-17T08:03:04;24.90;49.70
3850;DHT22;1940;51.052;13.678;2022-07-17T08:05:30;24.70;50.30
3850;DHT22;1940;51.052;13.678;2022-07-17T08:07:56;24.50;50.30
3850;DHT22;1940;51.052;13.678;2022-07-17T08:10:22;23.90;51.30
3850;DHT22;1940;51.052;13.678;2022-07-17T08:12:47;23.00;52.90
3850;DHT22;1940;51.052;13.678;2022-07-17T08:15:16;22.90;53.00
3850;DHT22;1940;51.052;13.678;2022-07-17T08:17:42;22.20;54.30
3850;DHT22;1940;51.052;13.678;2022-07-17T08:20:08;22.20;55.10
3850;DHT22;1940;51.052;13.678;2022-07-17T08:22:34;22.90;53.60
3850;DHT22;1940;51.052;13.678;2022-07-17T08:25:00;23.00;53.50
3850;DHT22;1940;51.052;13.678;2022-07-17T08:27:26;23.80;51.90
3850;DHT22;1940;51.052;13.678;2022-07-17T08:29:51;23.70;51.50
3850;DHT22;1940;51.052;13.678;2022-07-17T08:32:17;23.70;52.00
3850;DHT22;1940;51.052;13.678;2022-07-17T08:34:42;24.30;50.50
3850;DHT22;1940;51.052;13.678;2022-07-17T08:37:08;24.10;50.60
3850;DHT22;1940;51.052;13.678;2022-07-17T08:39:34;24.40;50.80
3850;DHT22;1940;51.052;13.678;2022-07-17T08:42:02;25.00;49.90
3850;DHT22;1940;51.052;13.678;2022-07-17T08:44:28;25.10;49.20
3850;DHT22;1940;51.052;13.678;2022-07-17T08:46:54;26.00;48.70
3850;DHT22;1940;51.052;13.678;2022-07-17T08:49:21;26.40;47.20
3850;DHT22;1940;51.052;13.678;2022-07-17T08:51:48;26.70;47.00
3850;DHT22;1940;51.052;13.678;2022-07-17T08:54:14;26.80;46.80
3850;DHT22;1940;51.052;13.678;2022-07-17T08:56:40;27.00;46.50
3850;DHT22;1940;51.052;13.678;2022-07-17T08:59:06;26.80;46.20
3850;DHT22;1940;51.052;13.678;2022-07-17T09:01:31;25.30;48.20
3850;DHT22;1940;51.052;13.678;2022-07-17T09:04:02;25.00;49.30
3850;DHT22;1940;51.052;13.678;2022-07-17T09:06:32;25.50;48.30
3850;DHT22;1940;51.052;13.678;2022-07-17T09:09:08;25.50;48.50
3850;DHT22;1940;51.052;13.678;2022-07-17T09:11:48;25.10;48.80
3850;DHT22;1940;51.052;13.678;2022-07-17T09:14:15;25.40;48.10
3850;DHT22;1940;51.052;13.678;2022-07-17T09:19:32;25.90;48.20
3850;DHT22;1940;51.052;13.678;2022-07-17T09:22:23;26.20;47.10
3850;DHT22;1940;51.052;13.678;2022-07-17T09:24:56;26.80;46.70
3850;DHT22;1940;51.052;13.678;2022-07-17T09:29:55;27.20;46.30
3850;DHT22;1940;51.052;13.678;2022-07-17T09:32:22;27.70;44.80
3850;DHT22;1940;51.052;13.678;2022-07-17T09:34:50;28.60;44.20
3850;DHT22;1940;51.052;13.678;2022-07-17T09:37:16;29.00;43.50
3850;DHT22;1940;51.052;13.678;2022-07-17T09:39:42;29.20;43.50
3850;DHT22;1940;51.052;13.678;2022-07-17T09:42:09;29.20;43.80
3850;DHT22;1940;51.052;13.678;2022-07-17T09:44:35;29.00;43.80
3850;DHT22;1940;51.052;13.678;2022-07-17T09:47:02;29.00;42.30
3850;DHT22;1940;51.052;13.678;2022-07-17T09:49:28;29.10;42.70
3850;DHT22;1940;51.052;13.678;2022-07-17T09:51:55;29.10;43.50
3850;DHT22;1940;51.052;13.678;2022-07-17T09:54:22;29.20;42.40
3850;DHT22;1940;51.052;13.678;2022-07-17T09:56:50;28.40;43.50
3850;DHT22;1940;51.052;13.678;2022-07-17T09:59:16;28.00;43.50
3850;DHT22;1940;51.052;13.678;2022-07-17T10:01:45;27.50;44.80
3850;DHT22;1940;51.052;13.678;2022-07-17T10:04:15;27.20;45.00
3850;DHT22;1940;51.052;13.678;2022-07-17T10:06:43;27.00;45.50
3850;DHT22;1940;51.052;13.678;2022-07-17T10:09:08;26.60;46.30
3850;DHT22;1940;51.052;13.678;2022-07-17T10:11:39;26.70;46.20
3850;DHT22;1940;51.052;13.678;2022-07-17T10:14:10;27.40;45.00
3850;DHT22;1940;51.052;13.678;2022-07-17T10:16:36;28.20;43.70
3850;DHT22;1940;51.052;13.678;2022-07-17T10:19:24;29.00;42.10
3850;DHT22;1940;51.052;13.678;2022-07-17T10:21:53;29.40;41.50
3850;DHT22;1940;51.052;13.678;2022-07-17T10:24:20;28.90;41.60
3850;DHT22;1940;51.052;13.678;2022-07-17T10:26:46;28.40;42.80
3850;DHT22;1940;51.052;13.678;2022-07-17T10:29:37;28.30;43.00
3850;DHT22;1940;51.052;13.678;2022-07-17T10:32:18;28.80;42.80
3850;DHT22;1940;51.052;13.678;2022-07-17T10:34:47;28.70;42.40
3850;DHT22;1940;51.052;13.678;2022-07-17T10:40:11;29.00;43.00
3850;DHT22;1940;51.052;13.678;2022-07-17T10:45:48;30.00;41.00
3850;DHT22;1940;51.052;13.678;2022-07-17T10:48:18;29.40;41.70
3850;DHT22;1940;51.052;13.678;2022-07-17T10:53:23;29.10;42.50
3850;DHT22;1940;51.052;13.678;2022-07-17T10:56:01;29.40;41.70
3850;DHT22;1940;51.052;13.678;2022-07-17T10:58:36;29.30;42.00
3850;DHT22;1940;51.052;13.678;2022-07-17T11:01:09;28.70;41.50
3850;DHT22;1940;51.052;13.678;2022-07-17T11:03:50;28.50;42.00
3850;DHT22;1940;51.052;13.678;2022-07-17T11:06:17;28.20;41.80
3850;DHT22;1940;51.052;13.678;2022-07-17T11:08:49;27.60;42.90
3850;DHT22;1940;51.052;13.678;2022-07-17T11:11:17;27.10;44.50
3850;DHT22;1940;51.052;13.678;2022-07-17T11:13:43;27.10;44.60
3850;DHT22;1940;51.052;13.678;2022-07-17T11:16:09;27.00;44.60
3850;DHT22;1940;51.052;13.678;2022-07-17T11:18:35;26.90;45.30
3850;DHT22;1940;51.052;13.678;2022-07-17T11:21:03;27.00;44.50
3850;DHT22;1940;51.052;13.678;2022-07-17T11:23:33;27.40;44.00
3850;DHT22;1940;51.052;13.678;2022-07-17T11:26:00;28.00;43.30
3850;DHT22;1940;51.052;13.678;2022-07-17T11:28:40;27.90;43.60
3850;DHT22;1940;51.052;13.678;2022-07-17T11:31:35;28.00;43.60
3850;DHT22;1940;51.052;13.678;2022-07-17T11:34:06;28.40;43.20
3850;DHT22;1940;51.052;13.678;2022-07-17T11:36:41;28.10;42.40
3850;DHT22;1940;51.052;13.678;2022-07-17T11:39:12;27.00;44.50
3850;DHT22;1940;51.052;13.678;2022-07-17T11:41:40;26.90;45.60
3850;DHT22;1940;51.052;13.678;2022-07-17T11:44:12;26.40;45.80
3850;DHT22;1940;51.052;13.678;2022-07-17T11:46:41;26.10;46.10
3850;DHT22;1940;51.052;13.678;2022-07-17T11:49:08;26.10;45.10
3850;DHT22;1940;51.052;13.678;2022-07-17T11:51:42;25.80;45.50
3850;DHT22;1940;51.052;13.678;2022-07-17T11:54:13;25.50;46.80
3850;DHT22;1940;51.052;13.678;2022-07-17T11:56:40;25.30;47.10
3850;DHT22;1940;51.052;13.678;2022-07-17T11:59:08;24.90;47.40
3850;DHT22;1940;51.052;13.678;2022-07-17T12:01:42;24.50;48.00
3850;DHT22;1940;51.052;13.678;2022-07-17T12:04:11;24.60;47.80
3850;DHT22;1940;51.052;13.678;2022-07-17T12:06:36;24.40;48.30
3850;DHT22;1940;51.052;13.678;2022-07-17T12:09:04;24.50;48.20
3850;DHT22;1940;51.052;13.678;2022-07-17T12:11:29;24.60;48.60
3850;DHT22;1940;51.052;13.678;2022-07-17T12:14:03;24.80;48.40
3850;DHT22;1940;51.052;13.678;2022-07-17T12:16:30;25.10;47.70
3850;DHT22;1940;51.052;13.678;2022-07-17T12:21:23;25.30;45.40
3850;DHT22;1940;51.052;13.678;2022-07-17T12:23:57;25.40;46.00
3850;DHT22;1940;51.052;13.678;2022-07-17T12:26:24;25.20;45.90
3850;DHT22;1940;51.052;13.678;2022-07-17T12:28:49;25.00;45.60
3850;DHT22;1940;51.052;13.678;2022-07-17T12:31:15;24.80;46.30
3850;DHT22;1940;51.052;13.678;2022-07-17T12:33:42;24.70;46.40
3850;DHT22;1940;51.052;13.678;2022-07-17T12:36:08;24.50;46.60
3850;DHT22;1940;51.052;13.678;2022-07-17T12:38:34;24.50;46.30
3850;DHT22;1940;51.052;13.678;2022-07-17T12:41:00;24.50;46.20
3850;DHT22;1940;51.052;13.678;2022-07-17T12:43:26;24.50;45.80
3850;DHT22;1940;51.052;13.678;2022-07-17T12:45:52;24.40;46.30
3850;DHT22;1940;51.052;13.678;2022-07-17T12:48:17;24.50;46.30
3850;DHT22;1940;51.052;13.678;2022-07-17T12:50:43;24.50;46.60
3850;DHT22;1940;51.052;13.678;2022-07-17T12:53:09;24.50;46.00
3850;DHT22;1940;51.052;13.678;2022-07-17T12:55:35;24.50;47.10
3850;DHT22;1940;51.052;13.678;2022-07-17T12:58:03;24.40;46.00
3850;DHT22;1940;51.052;13.678;2022-07-17T13:00:29;24.20;46.20
3850;DHT22;1940;51.052;13.678;2022-07-17T13:02:55;24.20;47.00
3850;DHT22;1940;51.052;13.678;2022-07-17T13:05:21;24.50;47.40
3850;DHT22;1940;51.052;13.678;2022-07-17T13:07:46;24.60;46.80
3850;DHT22;1940;51.052;13.678;2022-07-17T13:10:12;24.60;46.60
3850;DHT22;1940;51.052;13.678;2022-07-17T13:12:38;24.70;46.60
3850;DHT22;1940;51.052;13.678;2022-07-17T13:15:04;24.70;46.60
3850;DHT22;1940;51.052;13.678;2022-07-17T13:17:30;24.50;46.80
3850;DHT22;1940;51.052;13.678;2022-07-17T13:19:55;24.40;46.70
3850;DHT22;1940;51.052;13.678;2022-07-17T13:22:21;24.40;47.20
3850;DHT22;1940;51.052;13.678;2022-07-17T13:24:47;24.40;47.10
3850;DHT22;1940;51.052;13.678;2022-07-17T13:27:12;24.30;47.20
3850;DHT22;1940;51.052;13.678;2022-07-17T13:29:38;24.40;47.60
3850;DHT22;1940;51.052;13.678;2022-07-17T13:32:04;24.70;46.50
3850;DHT22;1940;51.052;13.678;2022-07-17T13:34:30;24.70;46.90
3850;DHT22;1940;51.052;13.678;2022-07-17T13:36:56;24.70;46.30
3850;DHT22;1940;51.052;13.678;2022-07-17T13:39:22;24.80;46.40
3850;DHT22;1940;51.052;13.678;2022-07-17T13:41:48;24.90;46.90
3850;DHT22;1940;51.052;13.678;2022-07-17T13:44:14;25.00;45.70
3850;DHT22;1940;51.052;13.678;2022-07-17T13:46:40;24.90;46.00
3850;DHT22;1940;51.052;13.678;2022-07-17T13:49:05;25.00;45.60
3850;DHT22;1940;51.052;13.678;2022-07-17T13:51:32;25.00;45.80
3850;DHT22;1940;51.052;13.678;2022-07-17T13:53:57;25.00;45.80
3850;DHT22;1940;51.052;13.678;2022-07-17T13:56:23;24.90;46.40
3850;DHT22;1940;51.052;13.678;2022-07-17T13:58:49;25.00;43.90
3850;DHT22;1940;51.052;13.678;2022-07-17T14:01:15;24.70;43.50
3850;DHT22;1940;51.052;13.678;2022-07-17T14:03:41;24.50;43.50
3850;DHT22;1940;51.052;13.678;2022-07-17T14:06:07;24.60;43.30
3850;DHT22;1940;51.052;13.678;2022-07-17T14:08:33;24.60;42.80
3850;DHT22;1940;51.052;13.678;2022-07-17T14:10:59;24.70;43.00
3850;DHT22;1940;51.052;13.678;2022-07-17T14:13:25;24.70;43.50
3850;DHT22;1940;51.052;13.678;2022-07-17T14:15:51;24.70;43.30
3850;DHT22;1940;51.052;13.678;2022-07-17T14:18:17;24.70;43.30
3850;DHT22;1940;51.052;13.678;2022-07-17T14:20:43;24.90;43.40
3850;DHT22;1940;51.052;13.678;2022-07-17T14:23:09;24.80;43.20
3850;DHT22;1940;51.052;13.678;2022-07-17T14:25:34;24.90;43.70
3850;DHT22;1940;51.052;13.678;2022-07-17T14:28:00;24.90;43.30
3850;DHT22;1940;51.052;13.678;2022-07-17T14:30:26;24.80;44.00
3850;DHT22;1940;51.052;13.678;2022-07-17T14:32:52;25.00;44.80
3850;DHT22;1940;51.052;13.678;2022-07-17T14:35:18;25.10;45.10
3850;DHT22;1940;51.052;13.678;2022-07-17T14:37:44;25.20;45.00
3850;DHT22;1940;51.052;13.678;2022-07-17T14:40:11;25.00;43.70
3850;DHT22;1940;51.052;13.678;2022-07-17T14:42:37;24.80;44.20
3850;DHT22;1940;51.052;13.678;2022-07-17T14:45:03;24.60;44.70
3850;DHT22;1940;51.052;13.678;2022-07-17T14:47:29;24.50;44.60
3850;DHT22;1940;51.052;13.678;2022-07-17T14:49:55;24.40;44.20
3850;DHT22;1940;51.052;13.678;2022-07-17T14:52:20;24.30;44.40
3850;DHT22;1940;51.052;13.678;2022-07-17T14:54:46;24.40;44.70
3850;DHT22;1940;51.052;13.678;2022-07-17T14:57:12;24.40;44.40
3850;DHT22;1940;51.052;13.678;2022-07-17T14:59:38;24.40;44.30
3850;DHT22;1940;51.052;13.678;2022-07-17T15:02:05;24.50;44.10
3850;DHT22;1940;51.052;13.678;2022-07-17T15:04:30;24.50;43.00
3850;DHT22;1940;51.052;13.678;2022-07-17T15:06:56;24.40;43.80
3850;DHT22;1940;51.052;13.678;2022-07-17T15:09:21;24.50;43.80
3850;DHT22;1940;51.052;13.678;2022-07-17T15:11:47;24.60;43.40
3850;DHT22;1940;51.052;13.678;2022-07-17T15:14:13;24.80;43.10
3850;DHT22;1940;51.052;13.678;2022-07-17T15:16:39;25.00;42.20
3850;DHT22;1940;51.052;13.678;2022-07-17T15:19:05;25.00;42.50
3850;DHT22;1940;51.052;13.678;2022-07-17T15:21:30;25.00;42.60
3850;DHT22;1940;51.052;13.678;2022-07-17T15:23:56;25.10;41.90
3850;DHT22;1940;51.052;13.678;2022-07-17T15:26:22;25.20;41.80
3850;DHT22;1940;51.052;13.678;2022-07-17T15:28:47;25.10;41.40
3850;DHT22;1940;51.052;13.678;2022-07-17T15:31:13;25.10;41.20
3850;DHT22;1940;51.052;13.678;2022-07-17T15:33:38;25.00;41.00
3850;DHT22;1940;51.052;13.678;2022-07-17T15:36:08;25.20;41.40
3850;DHT22;1940;51.052;13.678;2022-07-17T15:38:35;25.10;42.10
3850;DHT22;1940;51.052;13.678;2022-07-17T15:41:00;25.20;42.40
3850;DHT22;1940;51.052;13.678;2022-07-17T15:43:26;25.30;42.80
3850;DHT22;1940;51.052;13.678;2022-07-17T15:45:51;25.30;42.70
3850;DHT22;1940;51.052;13.678;2022-07-17T15:48:17;25.30;42.70
3850;DHT22;1940;51.052;13.678;2022-07-17T15:50:43;25.30;43.10
3850;DHT22;1940;51.052;13.678;2022-07-17T15:53:09;25.20;42.40
3850;DHT22;1940;51.052;13.678;2022-07-17T15:55:34;25.10;42.70
3850;DHT22;1940;51.052;13.678;2022-07-17T15:58:00;25.10;43.10